Pagrindinis puslapis
METAR-TAF:

METAR-TAF

Oro uostai :

Šiaulių oro uostas

Šiauliai, Lietuva

platuma: 55-53-38N, ilguma: 023-23-42E, Aukštis: 135 m

Dabartinis oras

Ataskaita buvo paskelbta 33 minutes, ne 10:20 UTC
Vėjas 15 kt iš Pietvakarių
Temperatūra 6°C
Drėgmė 81%
Slėgis 1007 hPa
Matomumas 10 km arba daugiau
Su prošvaistėmis ne aukštis 1500 ft
Su prošvaistėmis ne aukštis 2000 ft

METAR: EYSA 181020Z 22015KT 9999 BKN015 BKN020 06/03 Q1007 R14L/19//95 R14R/19//95 WHT NOSIG

Laikas: 12:53 (10:53 UTC)

Prognozė

Ataskaita buvo paskelbta 2 valandos ir 51 minutes, ne 08:02 UTC
Prognozė galioja nuo 18 metu 09 UTC su 18 metu 18 UTC
Vėjas 14 kt iš Pietvakarių su gūsio iki 24 kt
Matomumas: 9000 m
Išsisklaidę debesys ne aukštis 1800 ft, Liūtiniai kamuoliniai debesys.
Su prošvaistėmis ne aukštis 2400 ft

TAF: EYSA 180802Z 1809/1818 23014G24KT 9000 SCT018CB BKN024

Orai ataskaitas ir orų prognozės (METAR, TAF).

turimą stotys yra geltonos ir raudonos taškus žemėlapyje.

Perkelti pele per norėdami pamatyti stoties vardą.

Tada spustelėkite, norėdami matyti oro stebėjimo ir prognozės.

Norėdami pakeisti žemėlapį: spustelėkite ant žalios mygtukų su juodo kryžiaus žemyn,; žalią mygtuką su brūkšneliu, jei norite nutolinti; arba žalių rodyklių gretimoms žemėlapius.


METAR-TAF: